sensor_id;sensor_type;location;lat;lon;timestamp;pressure;altitude;pressure_sealevel;temperature;humidity
10466;BME280;5280;42.600;23.556;2022-07-10T00:01:09;93328.28;;;16.05;100.00
10466;BME280;5280;42.600;23.556;2022-07-10T00:03:36;93319.44;;;16.05;100.00
10466;BME280;5280;42.600;23.556;2022-07-10T00:06:03;93329.41;;;16.20;100.00
10466;BME280;5280;42.600;23.556;2022-07-10T00:08:30;93280.19;;;15.89;100.00
10466;BME280;5280;42.600;23.556;2022-07-10T00:10:57;93329.41;;;16.20;100.00
10466;BME280;5280;42.600;23.556;2022-07-10T00:13:24;93315.03;;;16.13;100.00
10466;BME280;5280;42.600;23.556;2022-07-10T00:15:53;93272.97;;;15.81;100.00
10466;BME280;5280;42.600;23.556;2022-07-10T00:18:22;93291.50;;;15.83;100.00
10466;BME280;5280;42.600;23.556;2022-07-10T00:20:49;93296.91;;;15.99;100.00
10466;BME280;5280;42.600;23.556;2022-07-10T00:23:16;93277.47;;;15.81;100.00
10466;BME280;5280;42.600;23.556;2022-07-10T00:25:43;93262.28;;;15.73;100.00
10466;BME280;5280;42.600;23.556;2022-07-10T00:28:10;93284.16;;;15.85;100.00
10466;BME280;5280;42.600;23.556;2022-07-10T00:30:37;93297.09;;;15.98;100.00
10466;BME280;5280;42.600;23.556;2022-07-10T00:33:06;93286.53;;;15.88;100.00
10466;BME280;5280;42.600;23.556;2022-07-10T00:35:33;93297.09;;;15.98;100.00
10466;BME280;5280;42.600;23.556;2022-07-10T00:38:01;93294.72;;;15.94;100.00
10466;BME280;5280;42.600;23.556;2022-07-10T00:40:28;93277.56;;;15.71;100.00
10466;BME280;5280;42.600;23.556;2022-07-10T00:42:55;93254.44;;;15.72;100.00
10466;BME280;5280;42.600;23.556;2022-07-10T00:45:22;93303.63;;;16.03;100.00
10466;BME280;5280;42.600;23.556;2022-07-10T00:47:48;93290.81;;;16.07;100.00
10466;BME280;5280;42.600;23.556;2022-07-10T00:50:17;93285.34;;;16.08;100.00
10466;BME280;5280;42.600;23.556;2022-07-10T00:52:46;93261.38;;;15.90;100.00
10466;BME280;5280;42.600;23.556;2022-07-10T00:55:13;93288.66;;;16.10;100.00
10466;BME280;5280;42.600;23.556;2022-07-10T00:57:40;93281.66;;;16.09;100.00
10466;BME280;5280;42.600;23.556;2022-07-10T01:00:08;93253.63;;;15.79;100.00
10466;BME280;5280;42.600;23.556;2022-07-10T01:02:37;93268.28;;;16.01;100.00
10466;BME280;5280;42.600;23.556;2022-07-10T01:05:07;93246.00;;;15.84;100.00
10466;BME280;5280;42.600;23.556;2022-07-10T01:07:36;93273.47;;;16.03;100.00
10466;BME280;5280;42.600;23.556;2022-07-10T01:10:04;93230.44;;;15.72;100.00
10466;BME280;5280;42.600;23.556;2022-07-10T01:12:31;93232.41;;;15.70;100.00
10466;BME280;5280;42.600;23.556;2022-07-10T01:14:58;93252.41;;;15.91;100.00
10466;BME280;5280;42.600;23.556;2022-07-10T01:17:26;93274.13;;;16.05;100.00
10466;BME280;5280;42.600;23.556;2022-07-10T01:19:54;93247.22;;;15.90;100.00
10466;BME280;5280;42.600;23.556;2022-07-10T01:22:23;93201.53;;;15.59;100.00
10466;BME280;5280;42.600;23.556;2022-07-10T01:24:50;93227.09;;;15.70;100.00
10466;BME280;5280;42.600;23.556;2022-07-10T01:27:17;93267.22;;;15.94;100.00
10466;BME280;5280;42.600;23.556;2022-07-10T01:29:44;93189.06;;;15.42;100.00
10466;BME280;5280;42.600;23.556;2022-07-10T01:32:12;93260.34;;;15.83;100.00
10466;BME280;5280;42.600;23.556;2022-07-10T01:34:41;93199.53;;;15.53;100.00
10466;BME280;5280;42.600;23.556;2022-07-10T01:37:08;93253.25;;;15.92;100.00
10466;BME280;5280;42.600;23.556;2022-07-10T01:39:37;93252.06;;;15.94;100.00
10466;BME280;5280;42.600;23.556;2022-07-10T01:42:04;93249.59;;;15.93;100.00
10466;BME280;5280;42.600;23.556;2022-07-10T01:44:31;93240.22;;;15.89;100.00
10466;BME280;5280;42.600;23.556;2022-07-10T01:46:58;93242.16;;;15.79;100.00
10466;BME280;5280;42.600;23.556;2022-07-10T01:49:25;93251.34;;;15.84;100.00
10466;BME280;5280;42.600;23.556;2022-07-10T01:51:52;93243.72;;;15.89;100.00
10466;BME280;5280;42.600;23.556;2022-07-10T01:54:19;93252.13;;;15.77;100.00
10466;BME280;5280;42.600;23.556;2022-07-10T01:56:47;93244.88;;;15.87;100.00
10466;BME280;5280;42.600;23.556;2022-07-10T01:59:14;93245.72;;;15.87;100.00
10466;BME280;5280;42.600;23.556;2022-07-10T02:01:41;93232.13;;;15.73;100.00
10466;BME280;5280;42.600;23.556;2022-07-10T02:04:08;93253.03;;;15.85;100.00
10466;BME280;5280;42.600;23.556;2022-07-10T02:06:53;93246.47;;;15.80;100.00
10466;BME280;5280;42.600;23.556;2022-07-10T02:09:20;93249.69;;;15.83;100.00
10466;BME280;5280;42.600;23.556;2022-07-10T02:11:48;93181.41;;;15.39;100.00
10466;BME280;5280;42.600;23.556;2022-07-10T02:14:15;93244.84;;;15.79;100.00
10466;BME280;5280;42.600;23.556;2022-07-10T02:16:43;93256.47;;;15.78;100.00
10466;BME280;5280;42.600;23.556;2022-07-10T02:19:10;93251.16;;;15.78;100.00
10466;BME280;5280;42.600;23.556;2022-07-10T02:21:37;93238.38;;;15.64;100.00
10466;BME280;5280;42.600;23.556;2022-07-10T02:24:04;93214.91;;;15.49;100.00
10466;BME280;5280;42.600;23.556;2022-07-10T02:26:31;93194.16;;;15.35;100.00
10466;BME280;5280;42.600;23.556;2022-07-10T02:29:00;93243.72;;;15.64;100.00
10466;BME280;5280;42.600;23.556;2022-07-10T02:31:27;93252.91;;;15.69;100.00
10466;BME280;5280;42.600;23.556;2022-07-10T02:33:53;93191.81;;;15.32;100.00
10466;BME280;5280;42.600;23.556;2022-07-10T02:36:20;93247.56;;;15.69;100.00
10466;BME280;5280;42.600;23.556;2022-07-10T02:38:47;93247.03;;;15.66;100.00
10466;BME280;5280;42.600;23.556;2022-07-10T02:41:14;93242.19;;;15.61;100.00
10466;BME280;5280;42.600;23.556;2022-07-10T02:43:41;93215.84;;;15.40;100.00
10466;BME280;5280;42.600;23.556;2022-07-10T02:46:09;93207.94;;;15.31;100.00
10466;BME280;5280;42.600;23.556;2022-07-10T02:48:36;93226.59;;;15.48;100.00
10466;BME280;5280;42.600;23.556;2022-07-10T02:51:04;93260.22;;;15.67;100.00
10466;BME280;5280;42.600;23.556;2022-07-10T02:53:31;93222.84;;;15.41;100.00
10466;BME280;5280;42.600;23.556;2022-07-10T02:55:58;93254.91;;;15.67;100.00
10466;BME280;5280;42.600;23.556;2022-07-10T02:58:25;93195.41;;;15.23;100.00
10466;BME280;5280;42.600;23.556;2022-07-10T03:00:52;93255.50;;;15.61;100.00
10466;BME280;5280;42.600;23.556;2022-07-10T03:03:21;93200.44;;;15.26;100.00
10466;BME280;5280;42.600;23.556;2022-07-10T03:05:48;93266.69;;;15.65;100.00
10466;BME280;5280;42.600;23.556;2022-07-10T03:08:15;93247.97;;;15.57;100.00
10466;BME280;5280;42.600;23.556;2022-07-10T03:10:42;93200.38;;;15.18;100.00
10466;BME280;5280;42.600;23.556;2022-07-10T03:13:09;93262.28;;;15.56;100.00
10466;BME280;5280;42.600;23.556;2022-07-10T03:15:36;93271.50;;;15.61;100.00
10466;BME280;5280;42.600;23.556;2022-07-10T03:18:03;93262.88;;;15.67;100.00
10466;BME280;5280;42.600;23.556;2022-07-10T03:20:33;93270.03;;;15.67;100.00
10466;BME280;5280;42.600;23.556;2022-07-10T03:23:00;93267.69;;;15.64;100.00
10466;BME280;5280;42.600;23.556;2022-07-10T03:25:27;93213.41;;;15.29;100.00
10466;BME280;5280;42.600;23.556;2022-07-10T03:27:54;93200.28;;;15.28;100.00
10466;BME280;5280;42.600;23.556;2022-07-10T03:30:21;93271.16;;;15.64;100.00
10466;BME280;5280;42.600;23.556;2022-07-10T03:32:50;93229.53;;;15.45;100.00
10466;BME280;5280;42.600;23.556;2022-07-10T03:35:17;93268.22;;;15.67;100.00
10466;BME280;5280;42.600;23.556;2022-07-10T03:37:45;93186.00;;;15.11;100.00
10466;BME280;5280;42.600;23.556;2022-07-10T03:40:12;93275.59;;;15.73;100.00
10466;BME280;5280;42.600;23.556;2022-07-10T03:42:39;93256.41;;;15.70;100.00
10466;BME280;5280;42.600;23.556;2022-07-10T03:45:07;93207.84;;;15.40;100.00
10466;BME280;5280;42.600;23.556;2022-07-10T03:47:34;93262.66;;;15.78;100.00
10466;BME280;5280;42.600;23.556;2022-07-10T03:50:01;93194.16;;;15.35;100.00
10466;BME280;5280;42.600;23.556;2022-07-10T03:52:28;93272.84;;;15.83;100.00
10466;BME280;5280;42.600;23.556;2022-07-10T03:54:56;93208.34;;;15.54;100.00
10466;BME280;5280;42.600;23.556;2022-07-10T03:57:23;93267.50;;;15.83;100.00
10466;BME280;5280;42.600;23.556;2022-07-10T04:00:09;93261.72;;;15.70;100.00
10466;BME280;5280;42.600;23.556;2022-07-10T04:02:37;93201.78;;;15.48;100.00
10466;BME280;5280;42.600;23.556;2022-07-10T04:05:05;93192.63;;;15.50;100.00
10466;BME280;5280;42.600;23.556;2022-07-10T04:07:33;93250.09;;;15.97;100.00
10466;BME280;5280;42.600;23.556;2022-07-10T04:10:02;93248.16;;;16.07;100.00
10466;BME280;5280;42.600;23.556;2022-07-10T04:12:30;93163.47;;;15.67;100.00
10466;BME280;5280;42.600;23.556;2022-07-10T04:14:56;93252.94;;;16.29;100.00
10466;BME280;5280;42.600;23.556;2022-07-10T04:17:28;93235.97;;;16.30;100.00
10466;BME280;5280;42.600;23.556;2022-07-10T04:19:57;93248.88;;;16.43;100.00
10466;BME280;5280;42.600;23.556;2022-07-10T04:22:24;93249.59;;;16.53;100.00
10466;BME280;5280;42.600;23.556;2022-07-10T04:24:52;93214.13;;;16.26;100.00
10466;BME280;5280;42.600;23.556;2022-07-10T04:27:20;93244.59;;;16.58;100.00
10466;BME280;5280;42.600;23.556;2022-07-10T04:29:47;93244.25;;;16.53;100.00
10466;BME280;5280;42.600;23.556;2022-07-10T04:32:15;93253.59;;;16.57;100.00
10466;BME280;5280;42.600;23.556;2022-07-10T04:34:42;93255.03;;;16.77;100.00
10466;BME280;5280;42.600;23.556;2022-07-10T04:37:09;93258.09;;;16.90;100.00
10466;BME280;5280;42.600;23.556;2022-07-10T04:39:37;93237.47;;;17.08;100.00
10466;BME280;5280;42.600;23.556;2022-07-10T04:42:05;93209.69;;;16.85;100.00
10466;BME280;5280;42.600;23.556;2022-07-10T04:44:34;93153.25;;;16.64;100.00
10466;BME280;5280;42.600;23.556;2022-07-10T04:47:01;93193.38;;;16.88;100.00
10466;BME280;5280;42.600;23.556;2022-07-10T04:49:31;93246.81;;;17.29;100.00
10466;BME280;5280;42.600;23.556;2022-07-10T04:51:58;93226.75;;;17.00;100.00
10466;BME280;5280;42.600;23.556;2022-07-10T04:54:25;93247.13;;;17.09;100.00
10466;BME280;5280;42.600;23.556;2022-07-10T04:56:52;93259.97;;;17.06;100.00
10466;BME280;5280;42.600;23.556;2022-07-10T04:59:19;93231.56;;;16.97;100.00
10466;BME280;5280;42.600;23.556;2022-07-10T05:01:48;93210.19;;;16.81;100.00
10466;BME280;5280;42.600;23.556;2022-07-10T05:04:15;93248.09;;;16.92;100.00
10466;BME280;5280;42.600;23.556;2022-07-10T05:06:41;93245.41;;;16.92;100.00
10466;BME280;5280;42.600;23.556;2022-07-10T05:09:09;93218.19;;;16.81;100.00
10466;BME280;5280;42.600;23.556;2022-07-10T05:11:35;93245.91;;;16.88;100.00
10466;BME280;5280;42.600;23.556;2022-07-10T05:14:02;93161.84;;;16.50;100.00
10466;BME280;5280;42.600;23.556;2022-07-10T05:16:30;93244.09;;;17.04;100.00
10466;BME280;5280;42.600;23.556;2022-07-10T05:18:58;93180.63;;;16.66;100.00
10466;BME280;5280;42.600;23.556;2022-07-10T05:21:25;93253.31;;;17.18;100.00
10466;BME280;5280;42.600;23.556;2022-07-10T05:23:52;93217.25;;;17.06;100.00
10466;BME280;5280;42.600;23.556;2022-07-10T05:26:19;93211.91;;;17.06;100.00
10466;BME280;5280;42.600;23.556;2022-07-10T05:28:46;93240.13;;;17.25;100.00
10466;BME280;5280;42.600;23.556;2022-07-10T05:31:13;93200.03;;;16.92;100.00
10466;BME280;5280;42.600;23.556;2022-07-10T05:33:40;93168.09;;;16.66;100.00
10466;BME280;5280;42.600;23.556;2022-07-10T05:36:09;93243.13;;;17.13;100.00
10466;BME280;5280;42.600;23.556;2022-07-10T05:38:36;93245.81;;;17.13;100.00
10466;BME280;5280;42.600;23.556;2022-07-10T05:41:03;93240.94;;;17.09;100.00
10466;BME280;5280;42.600;23.556;2022-07-10T05:43:30;93142.38;;;16.57;100.00
10466;BME280;5280;42.600;23.556;2022-07-10T05:45:59;93202.56;;;17.10;100.00
10466;BME280;5280;42.600;23.556;2022-07-10T05:48:29;93244.19;;;17.53;100.00
10466;BME280;5280;42.600;23.556;2022-07-10T05:50:56;93160.00;;;17.16;100.00
10466;BME280;5280;42.600;23.556;2022-07-10T05:53:24;93193.59;;;17.43;100.00
10466;BME280;5280;42.600;23.556;2022-07-10T05:55:51;93242.84;;;17.89;100.00
10466;BME280;5280;42.600;23.556;2022-07-10T05:58:18;93243.88;;;17.96;100.00
10466;BME280;5280;42.600;23.556;2022-07-10T06:00:48;93234.34;;;18.02;100.00
10466;BME280;5280;42.600;23.556;2022-07-10T06:03:16;93163.66;;;17.80;100.00
10466;BME280;5280;42.600;23.556;2022-07-10T06:05:43;93206.06;;;18.16;100.00
10466;BME280;5280;42.600;23.556;2022-07-10T06:08:10;93258.47;;;18.57;100.00
10466;BME280;5280;42.600;23.556;2022-07-10T06:10:39;93253.25;;;18.64;100.00
10466;BME280;5280;42.600;23.556;2022-07-10T06:13:11;93240.38;;;18.59;97.81
10466;BME280;5280;42.600;23.556;2022-07-10T06:15:40;93198.41;;;18.52;97.47
10466;BME280;5280;42.600;23.556;2022-07-10T06:18:07;93224.53;;;18.58;98.79
10466;BME280;5280;42.600;23.556;2022-07-10T06:20:34;93249.84;;;18.86;96.98
10466;BME280;5280;42.600;23.556;2022-07-10T06:23:01;93255.66;;;18.89;94.17
10466;BME280;5280;42.600;23.556;2022-07-10T06:25:29;93235.03;;;18.67;94.44
10466;BME280;5280;42.600;23.556;2022-07-10T06:27:57;93258.41;;;18.81;95.97
10466;BME280;5280;42.600;23.556;2022-07-10T06:30:24;93225.34;;;18.50;96.10
10466;BME280;5280;42.600;23.556;2022-07-10T06:32:51;93149.56;;;18.11;94.70
10466;BME280;5280;42.600;23.556;2022-07-10T06:35:19;93262.22;;;18.87;93.82
10466;BME280;5280;42.600;23.556;2022-07-10T06:37:46;93206.28;;;18.61;95.40
10466;BME280;5280;42.600;23.556;2022-07-10T06:40:17;93255.28;;;19.01;93.50
10466;BME280;5280;42.600;23.556;2022-07-10T06:42:47;93245.03;;;19.12;94.23
10466;BME280;5280;42.600;23.556;2022-07-10T06:45:15;93246.50;;;19.15;92.86
10466;BME280;5280;42.600;23.556;2022-07-10T06:47:43;93209.13;;;18.90;92.50
10466;BME280;5280;42.600;23.556;2022-07-10T06:50:26;93210.22;;;19.04;89.85
10466;BME280;5280;42.600;23.556;2022-07-10T06:52:55;93232.56;;;19.19;89.82
10466;BME280;5280;42.600;23.556;2022-07-10T06:55:23;93214.59;;;19.05;90.66
10466;BME280;5280;42.600;23.556;2022-07-10T06:57:50;93191.69;;;19.03;91.49
10466;BME280;5280;42.600;23.556;2022-07-10T07:00:19;93183.97;;;19.00;89.33
10466;BME280;5280;42.600;23.556;2022-07-10T07:02:46;93159.63;;;18.86;90.01
10466;BME280;5280;42.600;23.556;2022-07-10T07:05:14;93149.91;;;18.85;90.14
10466;BME280;5280;42.600;23.556;2022-07-10T07:07:41;93146.16;;;18.95;90.66
10466;BME280;5280;42.600;23.556;2022-07-10T07:10:09;93178.69;;;19.14;90.89
10466;BME280;5280;42.600;23.556;2022-07-10T07:12:39;93210.56;;;19.32;88.37
10466;BME280;5280;42.600;23.556;2022-07-10T07:15:07;93227.75;;;19.46;88.04
10466;BME280;5280;42.600;23.556;2022-07-10T07:17:40;93152.84;;;18.99;87.97
10466;BME280;5280;42.600;23.556;2022-07-10T07:20:39;93153.50;;;19.01;84.71
10466;BME280;5280;42.600;23.556;2022-07-10T07:23:24;93144.22;;;19.11;86.45
10466;BME280;5280;42.600;23.556;2022-07-10T07:25:51;93198.44;;;19.44;85.66
10466;BME280;5280;42.600;23.556;2022-07-10T07:28:19;93188.38;;;19.46;86.65
10466;BME280;5280;42.600;23.556;2022-07-10T07:30:47;93227.56;;;19.70;84.47
10466;BME280;5280;42.600;23.556;2022-07-10T07:33:16;93198.78;;;19.41;84.10
10466;BME280;5280;42.600;23.556;2022-07-10T07:35:44;93168.56;;;19.24;85.35
10466;BME280;5280;42.600;23.556;2022-07-10T07:38:11;93223.47;;;19.59;86.71
10466;BME280;5280;42.600;23.556;2022-07-10T07:40:38;93220.72;;;19.67;85.68
10466;BME280;5280;42.600;23.556;2022-07-10T07:43:06;93240.97;;;19.70;86.44
10466;BME280;5280;42.600;23.556;2022-07-10T07:45:33;93215.66;;;19.72;86.98
10466;BME280;5280;42.600;23.556;2022-07-10T07:48:00;93181.28;;;19.53;85.65
10466;BME280;5280;42.600;23.556;2022-07-10T07:50:30;93212.97;;;19.72;85.64
10466;BME280;5280;42.600;23.556;2022-07-10T07:53:01;93197.69;;;19.73;86.14
10466;BME280;5280;42.600;23.556;2022-07-10T07:55:29;93166.53;;;19.57;80.99
10466;BME280;5280;42.600;23.556;2022-07-10T07:57:57;93149.84;;;19.47;83.00
10466;BME280;5280;42.600;23.556;2022-07-10T08:00:25;93232.00;;;20.00;83.84
10466;BME280;5280;42.600;23.556;2022-07-10T08:02:54;93240.91;;;20.15;81.51
10466;BME280;5280;42.600;23.556;2022-07-10T08:05:21;93187.84;;;19.88;81.43
10466;BME280;5280;42.600;23.556;2022-07-10T08:07:51;93179.25;;;19.93;81.38
10466;BME280;5280;42.600;23.556;2022-07-10T08:10:20;93194.75;;;20.20;79.88
10466;BME280;5280;42.600;23.556;2022-07-10T08:12:48;93149.69;;;20.01;82.14
10466;BME280;5280;42.600;23.556;2022-07-10T08:15:17;93199.31;;;20.49;80.84
10466;BME280;5280;42.600;23.556;2022-07-10T08:17:47;93217.38;;;20.84;80.96
10466;BME280;5280;42.600;23.556;2022-07-10T08:20:14;93201.91;;;20.86;82.18
10466;BME280;5280;42.600;23.556;2022-07-10T08:22:43;93213.25;;;21.18;79.04
10466;BME280;5280;42.600;23.556;2022-07-10T08:25:13;93188.69;;;21.21;76.07
10466;BME280;5280;42.600;23.556;2022-07-10T08:27:41;93177.25;;;21.33;73.60
10466;BME280;5280;42.600;23.556;2022-07-10T08:30:09;93224.84;;;21.75;70.79
10466;BME280;5280;42.600;23.556;2022-07-10T08:32:36;93200.41;;;21.77;69.21
10466;BME280;5280;42.600;23.556;2022-07-10T08:35:04;93144.88;;;21.41;70.79
10466;BME280;5280;42.600;23.556;2022-07-10T08:37:37;93183.66;;;21.96;70.77
10466;BME280;5280;42.600;23.556;2022-07-10T08:40:05;93216.03;;;22.30;68.03
10466;BME280;5280;42.600;23.556;2022-07-10T08:42:34;93222.50;;;22.36;62.68
10466;BME280;5280;42.600;23.556;2022-07-10T08:45:03;93214.00;;;22.39;61.90
10466;BME280;5280;42.600;23.556;2022-07-10T08:47:34;93224.31;;;22.63;61.78
10466;BME280;5280;42.600;23.556;2022-07-10T08:50:01;93219.78;;;22.64;59.60
10466;BME280;5280;42.600;23.556;2022-07-10T08:52:33;93155.06;;;22.23;58.23
10466;BME280;5280;42.600;23.556;2022-07-10T08:55:00;93169.81;;;22.27;61.04
10466;BME280;5280;42.600;23.556;2022-07-10T08:57:28;93178.56;;;22.36;62.15
10466;BME280;5280;42.600;23.556;2022-07-10T08:59:58;93220.47;;;22.45;61.17
10466;BME280;5280;42.600;23.556;2022-07-10T09:02:25;93228.69;;;22.64;62.62
10466;BME280;5280;42.600;23.556;2022-07-10T09:04:52;93228.28;;;22.67;60.40
10466;BME280;5280;42.600;23.556;2022-07-10T09:07:20;93185.06;;;22.48;60.37
10466;BME280;5280;42.600;23.556;2022-07-10T09:09:52;93164.16;;;22.50;63.42
10466;BME280;5280;42.600;23.556;2022-07-10T09:12:21;93172.00;;;22.45;63.19
10466;BME280;5280;42.600;23.556;2022-07-10T09:14:48;93210.63;;;22.86;63.35
10466;BME280;5280;42.600;23.556;2022-07-10T09:17:18;93211.19;;;22.82;63.00
10466;BME280;5280;42.600;23.556;2022-07-10T09:19:45;93212.84;;;22.76;64.90
10466;BME280;5280;42.600;23.556;2022-07-10T09:22:15;93193.44;;;22.59;59.95
10466;BME280;5280;42.600;23.556;2022-07-10T09:24:44;93176.97;;;22.48;61.73
10466;BME280;5280;42.600;23.556;2022-07-10T09:27:12;93188.16;;;22.45;61.99
10466;BME280;5280;42.600;23.556;2022-07-10T09:29:50;93212.97;;;22.68;63.78
10466;BME280;5280;42.600;23.556;2022-07-10T09:32:22;93204.63;;;22.56;61.21
10466;BME280;5280;42.600;23.556;2022-07-10T09:34:50;93207.31;;;22.63;62.71
10466;BME280;5280;42.600;23.556;2022-07-10T09:37:39;93199.38;;;22.76;63.07
10466;BME280;5280;42.600;23.556;2022-07-10T09:40:08;93162.13;;;22.58;63.90
10466;BME280;5280;42.600;23.556;2022-07-10T09:42:37;93137.38;;;22.42;62.58
10466;BME280;5280;42.600;23.556;2022-07-10T09:45:16;93203.44;;;23.00;61.08
10466;BME280;5280;42.600;23.556;2022-07-10T09:47:46;93180.34;;;22.84;60.82
10466;BME280;5280;42.600;23.556;2022-07-10T09:50:20;93211.13;;;23.09;60.18
10466;BME280;5280;42.600;23.556;2022-07-10T09:52:49;93208.72;;;23.21;57.13
10466;BME280;5280;42.600;23.556;2022-07-10T09:55:19;93174.22;;;23.10;56.04
10466;BME280;5280;42.600;23.556;2022-07-10T09:57:51;93200.88;;;23.39;55.46
10466;BME280;5280;42.600;23.556;2022-07-10T10:00:19;93192.75;;;23.33;54.51
10466;BME280;5280;42.600;23.556;2022-07-10T10:02:49;93156.16;;;23.04;57.23
10466;BME280;5280;42.600;23.556;2022-07-10T10:05:17;93107.59;;;22.91;59.05
10466;BME280;5280;42.600;23.556;2022-07-10T10:07:46;93172.03;;;23.40;53.57
10466;BME280;5280;42.600;23.556;2022-07-10T10:10:14;93155.19;;;23.25;56.76
10466;BME280;5280;42.600;23.556;2022-07-10T10:12:46;93174.50;;;23.35;57.06
10466;BME280;5280;42.600;23.556;2022-07-10T10:15:14;93160.25;;;23.47;59.13
10466;BME280;5280;42.600;23.556;2022-07-10T10:17:43;93136.97;;;23.40;54.40
10466;BME280;5280;42.600;23.556;2022-07-10T10:20:13;93126.38;;;23.38;54.64
10466;BME280;5280;42.600;23.556;2022-07-10T10:23:01;93165.88;;;23.72;58.04
10466;BME280;5280;42.600;23.556;2022-07-10T10:25:28;93135.16;;;23.60;57.01
10466;BME280;5280;42.600;23.556;2022-07-10T10:27:59;93181.06;;;23.86;57.90
10466;BME280;5280;42.600;23.556;2022-07-10T10:30:27;93079.97;;;23.56;58.05
10466;BME280;5280;42.600;23.556;2022-07-10T10:32:54;93162.22;;;24.19;57.23
10466;BME280;5280;42.600;23.556;2022-07-10T10:35:44;93154.31;;;24.24;53.92
10466;BME280;5280;42.600;23.556;2022-07-10T10:38:12;93163.41;;;24.43;54.09
10466;BME280;5280;42.600;23.556;2022-07-10T10:40:39;93163.38;;;24.56;51.55
10466;BME280;5280;42.600;23.556;2022-07-10T10:43:16;93158.81;;;24.63;50.44
10466;BME280;5280;42.600;23.556;2022-07-10T10:45:44;93162.56;;;24.62;51.59
10466;BME280;5280;42.600;23.556;2022-07-10T10:48:13;93143.03;;;24.60;52.38
10466;BME280;5280;42.600;23.556;2022-07-10T10:50:42;93160.09;;;24.54;50.71
10466;BME280;5280;42.600;23.556;2022-07-10T10:53:21;93162.56;;;24.62;51.08
10466;BME280;5280;42.600;23.556;2022-07-10T10:56:22;93162.78;;;24.54;55.29
10466;BME280;5280;42.600;23.556;2022-07-10T10:58:51;93154.09;;;24.39;55.47
10466;BME280;5280;42.600;23.556;2022-07-10T11:01:29;93157.38;;;24.41;54.06
10466;BME280;5280;42.600;23.556;2022-07-10T11:04:12;93154.91;;;24.33;56.21
10466;BME280;5280;42.600;23.556;2022-07-10T11:06:41;93131.03;;;24.30;56.62
10466;BME280;5280;42.600;23.556;2022-07-10T11:09:26;93141.22;;;24.28;55.80
10466;BME280;5280;42.600;23.556;2022-07-10T11:12:04;93147.00;;;24.38;52.32
10466;BME280;5280;42.600;23.556;2022-07-10T11:14:32;93150.53;;;24.32;54.07
10466;BME280;5280;42.600;23.556;2022-07-10T11:17:00;93121.88;;;23.98;54.08
10466;BME280;5280;42.600;23.556;2022-07-10T11:19:28;93139.31;;;24.09;54.74
10466;BME280;5280;42.600;23.556;2022-07-10T11:22:07;93146.78;;;24.07;54.98
10466;BME280;5280;42.600;23.556;2022-07-10T11:24:45;93145.75;;;23.88;55.39
10466;BME280;5280;42.600;23.556;2022-07-10T11:27:34;93141.84;;;23.90;57.47
10466;BME280;5280;42.600;23.556;2022-07-10T11:30:04;93086.81;;;23.45;56.64
10466;BME280;5280;42.600;23.556;2022-07-10T11:32:31;93140.75;;;23.72;57.59
10466;BME280;5280;42.600;23.556;2022-07-10T11:35:00;93166.72;;;23.73;58.82
10466;BME280;5280;42.600;23.556;2022-07-10T11:37:27;93160.25;;;23.54;56.72
10466;BME280;5280;42.600;23.556;2022-07-10T11:40:10;93125.09;;;23.14;56.80
10466;BME280;5280;42.600;23.556;2022-07-10T11:42:50;93123.84;;;23.24;56.45
10466;BME280;5280;42.600;23.556;2022-07-10T11:45:26;93164.56;;;23.42;52.18
10466;BME280;5280;42.600;23.556;2022-07-10T11:47:57;93133.19;;;23.28;53.00
10466;BME280;5280;42.600;23.556;2022-07-10T11:50:25;93155.00;;;23.33;51.43
10466;BME280;5280;42.600;23.556;2022-07-10T11:52:53;93164.41;;;23.50;52.08
10466;BME280;5280;42.600;23.556;2022-07-10T11:55:22;93126.78;;;23.29;52.35
10466;BME280;5280;42.600;23.556;2022-07-10T11:57:50;93153.84;;;23.55;50.46
10466;BME280;5280;42.600;23.556;2022-07-10T12:00:23;93161.09;;;23.54;52.01
10466;BME280;5280;42.600;23.556;2022-07-10T12:02:50;93164.63;;;23.48;50.59
10466;BME280;5280;42.600;23.556;2022-07-10T12:05:31;93144.00;;;23.34;51.93
10466;BME280;5280;42.600;23.556;2022-07-10T12:07:58;93162.75;;;23.49;54.59
10466;BME280;5280;42.600;23.556;2022-07-10T12:10:32;93159.41;;;23.47;56.38
10466;BME280;5280;42.600;23.556;2022-07-10T12:13:04;93079.00;;;23.03;56.81
10466;BME280;5280;42.600;23.556;2022-07-10T12:15:32;93102.66;;;23.01;54.72
10466;BME280;5280;42.600;23.556;2022-07-10T12:17:59;93084.38;;;22.90;54.49
10466;BME280;5280;42.600;23.556;2022-07-10T12:20:27;93090.97;;;22.81;53.90
10466;BME280;5280;42.600;23.556;2022-07-10T12:22:54;93151.41;;;23.12;53.15
10466;BME280;5280;42.600;23.556;2022-07-10T12:25:21;93129.78;;;22.93;53.13
10466;BME280;5280;42.600;23.556;2022-07-10T12:27:55;93163.66;;;23.22;52.34
10466;BME280;5280;42.600;23.556;2022-07-10T12:30:22;93110.50;;;22.89;55.64
10466;BME280;5280;42.600;23.556;2022-07-10T12:32:49;93158.88;;;23.17;53.72
10466;BME280;5280;42.600;23.556;2022-07-10T12:35:17;93130.59;;;22.93;51.88
10466;BME280;5280;42.600;23.556;2022-07-10T12:37:48;93116.47;;;22.85;51.98
10466;BME280;5280;42.600;23.556;2022-07-10T12:40:30;93087.16;;;22.68;52.08
10466;BME280;5280;42.600;23.556;2022-07-10T12:43:05;93083.50;;;22.76;52.22
10466;BME280;5280;42.600;23.556;2022-07-10T12:45:33;93109.28;;;23.11;51.63
10466;BME280;5280;42.600;23.556;2022-07-10T12:48:00;93148.16;;;23.37;54.12
10466;BME280;5280;42.600;23.556;2022-07-10T12:50:29;93131.78;;;23.38;51.64
10466;BME280;5280;42.600;23.556;2022-07-10T12:53:09;93144.22;;;23.39;51.25
10466;BME280;5280;42.600;23.556;2022-07-10T12:55:38;93142.78;;;23.43;53.93
10466;BME280;5280;42.600;23.556;2022-07-10T12:58:09;93118.03;;;23.27;53.62
10466;BME280;5280;42.600;23.556;2022-07-10T13:00:44;93150.00;;;23.30;52.91
10466;BME280;5280;42.600;23.556;2022-07-10T13:03:18;93114.69;;;23.11;52.67
10466;BME280;5280;42.600;23.556;2022-07-10T13:05:47;93116.75;;;22.96;53.23